Time;durP1;ratioP1;P1;durP2;ratioP2;P2;SDS_P1;SDS_P2;PMS_P1;PMS_P2;Temp;Humidity;BMP_temperature;BMP_pressure;BME280_temperature;BME280_humidity;BME280_pressure;Samples;Min_cycle;Max_cycle;Signal;HPM_P1;HPM_P2
2023/02/03 00:00:45;;;;;;;4.63;3.63;;;;;;;;;;5053415;28;20205;-84
2023/02/03 00:03:12;;;;;;;6.10;4.77;;;;;;;;;;5052450;28;20218;-84
2023/02/03 00:05:39;;;;;;;2.77;2.23;;;;;;;;;;5053629;28;20232;-84
2023/02/03 00:08:09;;;;;;;1.23;1.13;;;;;;;;;;5052659;28;20217;-83
2023/02/03 00:10:36;;;;;;;1.27;1.17;;;;;;;;;;5063216;28;20676;-84
2023/02/03 00:13:04;;;;;;;1.33;1.23;;;;;;;;;;5059509;28;20286;-84
2023/02/03 00:15:31;;;;;;;1.83;1.60;;;;;;;;;;5063416;28;20215;-84
2023/02/03 00:17:58;;;;;;;2.03;1.80;;;;;;;;;;5070058;28;20757;-84
2023/02/03 00:20:25;;;;;;;2.93;1.30;;;;;;;;;;5073614;28;20255;-83
2023/02/03 00:22:53;;;;;;;1.50;1.33;;;;;;;;;;5053182;28;20561;-84
2023/02/03 00:25:22;;;;;;;1.53;1.43;;;;;;;;;;5064245;28;20205;-84
2023/02/03 00:27:49;;;;;;;1.67;1.23;;;;;;;;;;5061265;28;20205;-84
2023/02/03 00:30:16;;;;;;;1.30;1.20;;;;;;;;;;5060785;28;20209;-84
2023/02/03 00:32:43;;;;;;;0.90;0.90;;;;;;;;;;5052970;28;20233;-84
2023/02/03 00:35:10;;;;;;;2.07;1.47;;;;;;;;;;5051611;28;20198;-84
2023/02/03 00:37:37;;;;;;;4.77;2.23;;;;;;;;;;5052968;28;20201;-84
2023/02/03 00:40:05;;;;;;;3.93;2.20;;;;;;;;;;5053411;28;20206;-84
2023/02/03 00:42:34;;;;;;;4.07;2.40;;;;;;;;;;5071626;28;20266;-84
2023/02/03 00:45:01;;;;;;;3.70;2.13;;;;;;;;;;5060158;28;20790;-84
2023/02/03 00:47:28;;;;;;;2.83;2.20;;;;;;;;;;5065693;28;20210;-83
2023/02/03 00:49:55;;;;;;;4.93;3.50;;;;;;;;;;5051103;28;20209;-84
2023/02/03 00:52:22;;;;;;;4.47;3.13;;;;;;;;;;5063844;28;20229;-84
2023/02/03 00:54:49;;;;;;;8.13;4.57;;;;;;;;;;5052528;28;20206;-83
2023/02/03 00:57:16;;;;;;;9.90;5.20;;;;;;;;;;5051317;28;20202;-84
2023/02/03 00:59:45;;;;;;;6.60;5.73;;;;;;;;;;5065564;28;20703;-84
2023/02/03 01:02:12;;;;;;;18.33;12.30;;;;;;;;;;5052701;28;20209;-87
2023/02/03 01:04:39;;;;;;;21.13;14.50;;;;;;;;;;5052515;28;20656;-83
2023/02/03 01:07:06;;;;;;;6.90;5.70;;;;;;;;;;5058496;28;20220;-84
2023/02/03 01:09:33;;;;;;;3.77;3.00;;;;;;;;;;5069541;28;20201;-83
2023/02/03 01:12:01;;;;;;;2.27;1.90;;;;;;;;;;5050773;28;20214;-83
2023/02/03 01:14:28;;;;;;;1.70;1.53;;;;;;;;;;5064704;28;20205;-83
2023/02/03 01:16:56;;;;;;;3.00;2.63;;;;;;;;;;5050836;28;20202;-83
2023/02/03 01:19:25;;;;;;;5.63;4.20;;;;;;;;;;5064876;28;20201;-82
2023/02/03 01:21:52;;;;;;;4.33;2.50;;;;;;;;;;5025133;28;20246;-84
2023/02/03 01:24:19;;;;;;;2.90;1.97;;;;;;;;;;5047430;28;20205;-83
2023/02/03 01:26:46;;;;;;;4.03;1.67;;;;;;;;;;5058647;28;20204;-83
2023/02/03 01:29:13;;;;;;;2.43;1.93;;;;;;;;;;5054370;28;20268;-83
2023/02/03 01:31:41;;;;;;;3.87;2.50;;;;;;;;;;5059432;28;20213;-84
2023/02/03 01:34:12;;;;;;;1.97;1.63;;;;;;;;;;5068352;28;20229;-83
2023/02/03 01:36:39;;;;;;;1.77;1.60;;;;;;;;;;5051380;28;20205;-83
2023/02/03 01:39:06;;;;;;;1.77;1.60;;;;;;;;;;5051449;28;20263;-83
2023/02/03 01:41:37;;;;;;;1.20;1.10;;;;;;;;;;5060929;28;20201;-84
2023/02/03 01:44:37;;;;;;;1.60;1.50;;;;;;;;;;5051983;28;20275;-84
2023/02/03 01:47:04;;;;;;;1.57;1.20;;;;;;;;;;5051286;28;20585;-84
2023/02/03 01:49:35;;;;;;;4.00;1.80;;;;;;;;;;5049848;28;20696;-84
2023/02/03 01:52:02;;;;;;;4.53;1.93;;;;;;;;;;5064749;28;20205;-84
2023/02/03 01:54:31;;;;;;;2.03;1.57;;;;;;;;;;5051211;28;20233;-84
2023/02/03 01:57:02;;;;;;;1.00;1.00;;;;;;;;;;5053565;28;20262;-84
2023/02/03 01:59:30;;;;;;;1.07;0.93;;;;;;;;;;5071336;28;20205;-84
2023/02/03 02:01:57;;;;;;;1.10;1.00;;;;;;;;;;5051642;28;20697;-84
2023/02/03 02:04:26;;;;;;;1.47;1.37;;;;;;;;;;5049549;28;20656;-84
2023/02/03 02:06:56;;;;;;;0.90;0.90;;;;;;;;;;5056695;28;20631;-84
2023/02/03 02:09:23;;;;;;;1.83;1.30;;;;;;;;;;5070645;28;20205;-84
2023/02/03 02:11:51;;;;;;;2.83;1.03;;;;;;;;;;5037664;28;20201;-84
2023/02/03 02:14:18;;;;;;;1.47;1.37;;;;;;;;;;5051231;28;20224;-84
2023/02/03 02:16:50;;;;;;;1.00;1.00;;;;;;;;;;5016183;28;20256;-84
2023/02/03 02:19:33;;;;;;;1.50;1.20;;;;;;;;;;5045640;28;20198;-84
2023/02/03 02:22:08;;;;;;;3.07;1.30;;;;;;;;;;5061128;28;20201;-84
2023/02/03 02:25:10;;;;;;;1.43;1.10;;;;;;;;;;5064176;28;20282;-84
2023/02/03 02:28:02;;;;;;;1.20;1.10;;;;;;;;;;5051039;28;20618;-85
2023/02/03 02:30:57;;;;;;;1.07;1.07;;;;;;;;;;5046501;28;20224;-84
2023/02/03 02:33:32;;;;;;;4.80;1.60;;;;;;;;;;5051852;28;20233;-83
2023/02/03 02:36:08;;;;;;;1.07;1.00;;;;;;;;;;5052123;28;20263;-84
2023/02/03 02:38:41;;;;;;;1.90;1.20;;;;;;;;;;5064037;28;20205;-85
2023/02/03 02:41:13;;;;;;;0.83;0.83;;;;;;;;;;5050921;28;20205;-84
2023/02/03 02:43:42;;;;;;;1.57;1.20;;;;;;;;;;5051086;28;20202;-85
2023/02/03 02:46:13;;;;;;;1.40;1.30;;;;;;;;;;5051408;28;20209;-84
2023/02/03 02:48:45;;;;;;;1.30;1.23;;;;;;;;;;5051199;28;20202;-84
2023/02/03 02:51:15;;;;;;;0.80;0.80;;;;;;;;;;5050726;28;20210;-83
2023/02/03 02:53:46;;;;;;;1.00;0.90;;;;;;;;;;5055423;28;20233;-83
2023/02/03 02:56:13;;;;;;;2.30;1.70;;;;;;;;;;5057619;28;20301;-84
2023/02/03 02:58:42;;;;;;;1.67;1.57;;;;;;;;;;5069671;28;20205;-84
2023/02/03 03:01:09;;;;;;;0.93;0.90;;;;;;;;;;5069336;28;20213;-84
2023/02/03 03:03:39;;;;;;;1.00;1.00;;;;;;;;;;5052408;28;20205;-84
2023/02/03 03:06:11;;;;;;;1.20;1.10;;;;;;;;;;5058208;28;20240;-83
2023/02/03 03:08:44;;;;;;;1.53;1.20;;;;;;;;;;5038042;28;20210;-84
2023/02/03 03:11:12;;;;;;;1.27;1.20;;;;;;;;;;5052524;28;20218;-83
2023/02/03 03:13:42;;;;;;;0.97;0.97;;;;;;;;;;5071593;28;20746;-84
2023/02/03 03:16:10;;;;;;;1.10;1.10;;;;;;;;;;5061117;28;20213;-84
2023/02/03 03:18:42;;;;;;;2.03;1.40;;;;;;;;;;5074036;28;20206;-84
2023/02/03 03:21:13;;;;;;;1.10;1.10;;;;;;;;;;5070496;28;20213;-84
2023/02/03 03:23:43;;;;;;;1.50;1.40;;;;;;;;;;5054449;28;20275;-83
2023/02/03 03:26:12;;;;;;;1.53;1.40;;;;;;;;;;5058020;28;20209;-84
2023/02/03 03:28:43;;;;;;;2.43;1.90;;;;;;;;;;5073762;28;20296;-84
2023/02/03 03:31:11;;;;;;;2.50;1.57;;;;;;;;;;5068665;28;20214;-84
2023/02/03 03:33:38;;;;;;;3.53;1.00;;;;;;;;;;5052566;28;20240;-84
2023/02/03 03:36:12;;;;;;;1.23;1.20;;;;;;;;;;5054100;28;20206;-84
2023/02/03 03:38:41;;;;;;;1.03;1.03;;;;;;;;;;5055568;28;20221;-84
2023/02/03 03:41:14;;;;;;;1.10;1.10;;;;;;;;;;5055924;28;20201;-85
2023/02/03 03:43:44;;;;;;;1.40;1.30;;;;;;;;;;5073935;28;20290;-84
2023/02/03 03:46:13;;;;;;;1.20;1.10;;;;;;;;;;5069812;28;20684;-85
2023/02/03 03:48:46;;;;;;;2.13;1.10;;;;;;;;;;5053850;28;20210;-84
2023/02/03 03:51:17;;;;;;;1.43;1.20;;;;;;;;;;5048574;28;20700;-85
2023/02/03 03:53:44;;;;;;;3.47;1.40;;;;;;;;;;5058327;28;20645;-85
2023/02/03 03:56:15;;;;;;;1.10;1.10;;;;;;;;;;5067607;28;20205;-86
2023/02/03 03:58:45;;;;;;;1.47;1.37;;;;;;;;;;5066476;28;20690;-85
2023/02/03 04:01:13;;;;;;;2.37;1.30;;;;;;;;;;5040699;28;20228;-85
2023/02/03 04:03:45;;;;;;;1.23;1.20;;;;;;;;;;5052488;28;20218;-85
2023/02/03 04:06:12;;;;;;;1.07;1.07;;;;;;;;;;5064990;28;20209;-85
2023/02/03 04:08:41;;;;;;;1.00;0.93;;;;;;;;;;5070000;28;20208;-86
2023/02/03 04:11:08;;;;;;;1.23;1.13;;;;;;;;;;5072041;28;20594;-86
2023/02/03 04:13:35;;;;;;;0.90;0.90;;;;;;;;;;5089134;28;20260;-85
2023/02/03 04:16:02;;;;;;;2.17;1.37;;;;;;;;;;5065359;28;20216;-86
2023/02/03 04:18:30;;;;;;;1.90;1.43;;;;;;;;;;5064456;28;20205;-85
2023/02/03 04:20:57;;;;;;;1.33;1.30;;;;;;;;;;5060591;28;20699;-85
2023/02/03 04:23:26;;;;;;;1.53;1.40;;;;;;;;;;5051135;28;20217;-85
2023/02/03 04:25:54;;;;;;;2.40;1.83;;;;;;;;;;5054062;28;20259;-83
2023/02/03 04:28:22;;;;;;;1.87;1.53;;;;;;;;;;5062437;28;20279;-85
2023/02/03 04:30:51;;;;;;;2.03;1.10;;;;;;;;;;5052454;28;20214;-83
2023/02/03 04:33:19;;;;;;;2.13;1.53;;;;;;;;;;5059258;28;20209;-85
2023/02/03 04:35:46;;;;;;;1.80;1.70;;;;;;;;;;5038446;28;20648;-85
2023/02/03 04:38:13;;;;;;;3.83;2.67;;;;;;;;;;5055170;28;20197;-85
2023/02/03 04:40:41;;;;;;;2.30;1.17;;;;;;;;;;5057522;28;20228;-84
2023/02/03 04:43:09;;;;;;;2.20;1.20;;;;;;;;;;5045426;28;20260;-84
2023/02/03 04:45:37;;;;;;;1.10;1.10;;;;;;;;;;5057074;28;20206;-85
2023/02/03 04:48:04;;;;;;;1.53;1.43;;;;;;;;;;5056361;28;20260;-84
2023/02/03 04:50:32;;;;;;;4.10;1.50;;;;;;;;;;5055568;28;20262;-85
2023/02/03 04:53:00;;;;;;;1.43;1.33;;;;;;;;;;5040862;28;20273;-85
2023/02/03 04:55:27;;;;;;;1.47;1.37;;;;;;;;;;5042310;28;20720;-85
2023/02/03 04:57:55;;;;;;;1.27;1.17;;;;;;;;;;5054835;28;20201;-84
2023/02/03 05:00:23;;;;;;;1.33;1.23;;;;;;;;;;5071484;28;20637;-84
2023/02/03 05:02:51;;;;;;;1.47;1.33;;;;;;;;;;5058859;28;20727;-85
2023/02/03 05:05:18;;;;;;;1.00;1.00;;;;;;;;;;5037755;28;20241;-87
2023/02/03 05:07:45;;;;;;;1.90;1.30;;;;;;;;;;5048574;28;20209;-87
2023/02/03 05:10:12;;;;;;;2.47;1.20;;;;;;;;;;5059636;28;20209;-87
2023/02/03 05:12:40;;;;;;;1.50;1.40;;;;;;;;;;5041804;28;20678;-88
2023/02/03 05:15:07;;;;;;;1.30;1.20;;;;;;;;;;5049848;28;20233;-88
2023/02/03 05:17:38;;;;;;;1.20;1.10;;;;;;;;;;5051203;28;20209;-86
2023/02/03 05:20:06;;;;;;;1.20;1.20;;;;;;;;;;5038183;28;20202;-88
2023/02/03 05:22:34;;;;;;;1.20;1.07;;;;;;;;;;5050898;28;20218;-88
2023/02/03 05:25:01;;;;;;;1.73;1.63;;;;;;;;;;5060135;28;20670;-85
2023/02/03 05:27:28;;;;;;;4.50;1.80;;;;;;;;;;5058762;28;20213;-88
2023/02/03 05:29:55;;;;;;;4.10;3.57;;;;;;;;;;5071880;28;20230;-88
2023/02/03 05:32:22;;;;;;;2.60;2.40;;;;;;;;;;5057768;28;20210;-88
2023/02/03 05:34:52;;;;;;;3.00;2.30;;;;;;;;;;5071178;28;20225;-89
2023/02/03 05:37:21;;;;;;;2.93;2.60;;;;;;;;;;5051810;28;20220;-91
2023/02/03 05:39:48;;;;;;;3.17;2.07;;;;;;;;;;5051895;28;20260;-90
2023/02/03 05:42:14;;;;;;;1.53;1.43;;;;;;;;;;5034208;28;20237;-88
2023/02/03 05:44:42;;;;;;;1.60;1.50;;;;;;;;;;5033724;28;20295;-88
2023/02/03 05:47:09;;;;;;;1.63;1.53;;;;;;;;;;5051766;28;20716;-87
2023/02/03 05:49:36;;;;;;;1.80;1.70;;;;;;;;;;5059677;28;20255;-87
2023/02/03 05:52:04;;;;;;;2.10;1.90;;;;;;;;;;5055744;28;20638;-88
2023/02/03 05:54:31;;;;;;;4.70;2.20;;;;;;;;;;5051381;28;20302;-87
2023/02/03 05:56:58;;;;;;;2.83;1.93;;;;;;;;;;5064642;28;20217;-87
2023/02/03 05:59:24;;;;;;;3.07;2.07;;;;;;;;;;5051689;28;20210;-88
2023/02/03 06:01:51;;;;;;;9.10;7.03;;;;;;;;;;5053938;28;20210;-87
2023/02/03 06:04:18;;;;;;;4.80;3.73;;;;;;;;;;5071533;28;20286;-87
2023/02/03 06:06:46;;;;;;;4.97;2.97;;;;;;;;;;5057710;28;20209;-87
2023/02/03 06:09:14;;;;;;;5.90;2.83;;;;;;;;;;5061765;28;20267;-86
2023/02/03 06:11:41;;;;;;;5.07;3.53;;;;;;;;;;5064962;28;20206;-86
2023/02/03 06:14:11;;;;;;;4.87;2.37;;;;;;;;;;5061178;28;20247;-86
2023/02/03 06:16:38;;;;;;;2.83;2.07;;;;;;;;;;5070821;28;20205;-86
2023/02/03 06:19:05;;;;;;;2.00;1.80;;;;;;;;;;5060187;28;20198;-85
2023/02/03 06:21:31;;;;;;;3.07;2.07;;;;;;;;;;5055255;28;20672;-85
2023/02/03 06:23:58;;;;;;;2.53;2.33;;;;;;;;;;5059711;28;20214;-85
2023/02/03 06:26:29;;;;;;;3.13;2.53;;;;;;;;;;5056788;28;20216;-85
2023/02/03 06:28:56;;;;;;;1.97;1.87;;;;;;;;;;5070767;28;20672;-85
2023/02/03 06:31:23;;;;;;;2.50;2.20;;;;;;;;;;5037611;28;20688;-84
2023/02/03 06:33:50;;;;;;;3.77;3.00;;;;;;;;;;5051035;28;20229;-88
2023/02/03 06:36:16;;;;;;;4.53;2.87;;;;;;;;;;5057803;28;20212;-84
2023/02/03 06:38:43;;;;;;;3.33;2.70;;;;;;;;;;5070221;28;20216;-85
2023/02/03 06:41:10;;;;;;;3.33;2.57;;;;;;;;;;5070938;28;20453;-83
2023/02/03 06:43:38;;;;;;;3.23;2.63;;;;;;;;;;5056371;28;20201;-84
2023/02/03 06:46:05;;;;;;;4.30;3.27;;;;;;;;;;5045551;28;20201;-83
2023/02/03 06:48:33;;;;;;;2.43;2.23;;;;;;;;;;5074357;28;20671;-84
2023/02/03 06:51:00;;;;;;;2.70;2.50;;;;;;;;;;5066908;28;20631;-83
2023/02/03 06:53:27;;;;;;;3.57;2.63;;;;;;;;;;5056000;28;20225;-83
2023/02/03 06:55:53;;;;;;;4.17;2.50;;;;;;;;;;5066085;28;20244;-84
2023/02/03 06:58:20;;;;;;;3.13;2.80;;;;;;;;;;5067959;28;20201;-83
2023/02/03 07:00:50;;;;;;;2.97;2.23;;;;;;;;;;5054507;28;20263;-84
2023/02/03 07:03:16;;;;;;;3.97;3.17;;;;;;;;;;5068008;28;20216;-83
2023/02/03 07:05:43;;;;;;;4.63;2.77;;;;;;;;;;5054805;28;20238;-82
2023/02/03 07:08:10;;;;;;;2.73;2.47;;;;;;;;;;5053932;28;20202;-84
2023/02/03 07:10:37;;;;;;;1.93;1.83;;;;;;;;;;5054519;28;20260;-84
2023/02/03 07:13:04;;;;;;;4.57;3.13;;;;;;;;;;5069855;28;20215;-83
2023/02/03 07:15:31;;;;;;;2.90;2.40;;;;;;;;;;5073763;28;20654;-84
2023/02/03 07:17:59;;;;;;;4.57;3.17;;;;;;;;;;5071083;28;20262;-84
2023/02/03 07:20:27;;;;;;;3.27;2.47;;;;;;;;;;5053942;28;20275;-84
2023/02/03 07:22:55;;;;;;;4.70;2.97;;;;;;;;;;5053654;28;20210;-84
2023/02/03 07:25:23;;;;;;;2.90;2.60;;;;;;;;;;5064162;28;20255;-86
2023/02/03 07:27:50;;;;;;;2.30;2.07;;;;;;;;;;5074211;28;20205;-84
2023/02/03 07:30:17;;;;;;;4.73;3.67;;;;;;;;;;5062673;28;20214;-84
2023/02/03 07:32:47;;;;;;;6.50;2.70;;;;;;;;;;5066863;28;20669;-84
2023/02/03 07:35:15;;;;;;;3.03;2.70;;;;;;;;;;5054044;28;20269;-84
2023/02/03 07:37:44;;;;;;;3.03;2.83;;;;;;;;;;5066945;28;20212;-85
2023/02/03 07:40:12;;;;;;;2.40;2.30;;;;;;;;;;5053910;28;20202;-85
2023/02/03 07:42:44;;;;;;;2.67;2.47;;;;;;;;;;5059976;28;20235;-85
2023/02/03 07:45:13;;;;;;;2.77;2.10;;;;;;;;;;5073651;28;20201;-86
2023/02/03 07:47:40;;;;;;;3.27;2.30;;;;;;;;;;5066320;28;20214;-85
2023/02/03 07:50:08;;;;;;;6.97;2.70;;;;;;;;;;5067970;28;20205;-86
2023/02/03 07:52:36;;;;;;;2.57;2.37;;;;;;;;;;5065520;28;20275;-86
2023/02/03 07:55:03;;;;;;;2.63;2.43;;;;;;;;;;5053554;28;20249;-85
2023/02/03 07:57:30;;;;;;;2.60;2.17;;;;;;;;;;5053307;28;20218;-85
2023/02/03 07:59:57;;;;;;;4.60;2.30;;;;;;;;;;5065795;28;20283;-85
2023/02/03 08:02:23;;;;;;;2.77;2.57;;;;;;;;;;5061827;28;20201;-89
2023/02/03 08:04:51;;;;;;;2.43;2.23;;;;;;;;;;5060022;28;20260;-85
2023/02/03 08:07:17;;;;;;;3.13;2.83;;;;;;;;;;5073573;28;20205;-84
2023/02/03 08:09:45;;;;;;;2.03;1.93;;;;;;;;;;5060014;28;20279;-85
2023/02/03 08:12:12;;;;;;;4.43;3.80;;;;;;;;;;5063937;28;20190;-87
2023/02/03 08:14:39;;;;;;;3.30;2.97;;;;;;;;;;5066601;28;20232;-85
2023/02/03 08:17:06;;;;;;;2.87;2.30;;;;;;;;;;5062628;28;20208;-85
2023/02/03 08:19:32;;;;;;;4.40;2.40;;;;;;;;;;5072956;28;20201;-85
2023/02/03 08:21:59;;;;;;;3.37;3.07;;;;;;;;;;5072897;28;20209;-84
2023/02/03 08:24:26;;;;;;;3.47;2.07;;;;;;;;;;5056225;28;20201;-86
2023/02/03 08:26:54;;;;;;;2.63;1.87;;;;;;;;;;5062809;28;20208;-84
2023/02/03 08:29:21;;;;;;;1.80;1.53;;;;;;;;;;5069741;28;20205;-84
2023/02/03 08:31:48;;;;;;;2.67;1.70;;;;;;;;;;5063290;28;20259;-85
2023/02/03 08:34:15;;;;;;;4.97;3.50;;;;;;;;;;5055185;28;20209;-84
2023/02/03 08:36:43;;;;;;;3.43;3.13;;;;;;;;;;5052615;28;20291;-83
2023/02/03 08:39:10;;;;;;;3.03;2.17;;;;;;;;;;5070299;28;20619;-85
2023/02/03 08:41:37;;;;;;;3.27;2.80;;;;;;;;;;5072569;28;20209;-85
2023/02/03 08:44:05;;;;;;;2.63;2.20;;;;;;;;;;5059188;28;20672;-85
2023/02/03 08:46:32;;;;;;;2.53;2.30;;;;;;;;;;5060933;28;20267;-85
2023/02/03 08:49:01;;;;;;;1.70;1.60;;;;;;;;;;5052489;28;20233;-84
2023/02/03 08:51:28;;;;;;;2.43;2.23;;;;;;;;;;5065214;28;20201;-85
2023/02/03 08:53:55;;;;;;;4.17;2.07;;;;;;;;;;5065817;28;20746;-85
2023/02/03 08:56:23;;;;;;;2.87;2.57;;;;;;;;;;5065124;28;20236;-85
2023/02/03 08:58:50;;;;;;;3.03;2.67;;;;;;;;;;5045273;28;20193;-85
2023/02/03 09:01:18;;;;;;;2.47;2.27;;;;;;;;;;5072340;28;20201;-85
2023/02/03 09:03:45;;;;;;;3.00;2.80;;;;;;;;;;5058937;28;20209;-85
2023/02/03 09:06:15;;;;;;;1.97;1.87;;;;;;;;;;5058488;28;20206;-86
2023/02/03 09:08:42;;;;;;;4.57;3.97;;;;;;;;;;5071608;28;20219;-85
2023/02/03 09:11:10;;;;;;;3.43;3.13;;;;;;;;;;5071984;28;20204;-86
2023/02/03 09:13:37;;;;;;;2.53;2.00;;;;;;;;;;5071508;28;20213;-85
2023/02/03 09:16:05;;;;;;;3.63;2.67;;;;;;;;;;5057563;28;20233;-86
2023/02/03 09:18:33;;;;;;;2.77;2.20;;;;;;;;;;5051954;28;20252;-85
2023/02/03 09:21:01;;;;;;;2.47;2.23;;;;;;;;;;5067005;28;20695;-86
2023/02/03 09:23:28;;;;;;;1.83;1.73;;;;;;;;;;5062956;28;20206;-86
2023/02/03 09:25:55;;;;;;;3.20;2.97;;;;;;;;;;5052006;28;20260;-85
2023/02/03 09:28:22;;;;;;;3.73;3.00;;;;;;;;;;5052079;28;20198;-85
2023/02/03 09:30:48;;;;;;;2.33;1.63;;;;;;;;;;5051722;28;20206;-84
2023/02/03 09:33:15;;;;;;;2.67;2.47;;;;;;;;;;5061165;28;20209;-85
2023/02/03 09:35:52;;;;;;;4.67;2.10;;;;;;;;;;5058439;28;20236;-84
2023/02/03 09:38:18;;;;;;;1.53;1.43;;;;;;;;;;5060328;28;20216;-85
2023/02/03 09:40:47;;;;;;;1.73;1.63;;;;;;;;;;5069744;28;20197;-85
2023/02/03 09:43:23;;;;;;;1.67;1.57;;;;;;;;;;5060103;28;20209;-85
2023/02/03 09:45:50;;;;;;;2.23;1.90;;;;;;;;;;5051216;28;20201;-86
2023/02/03 09:48:23;;;;;;;2.37;2.07;;;;;;;;;;5052138;28;20230;-86
2023/02/03 09:50:52;;;;;;;1.80;1.70;;;;;;;;;;5063951;28;20206;-85
2023/02/03 09:53:25;;;;;;;2.10;1.90;;;;;;;;;;5066534;28;20217;-85
2023/02/03 09:55:52;;;;;;;2.33;2.13;;;;;;;;;;5061918;28;20283;-85
2023/02/03 09:58:21;;;;;;;2.27;2.07;;;;;;;;;;5054514;28;20571;-85
2023/02/03 10:00:51;;;;;;;1.60;1.53;;;;;;;;;;5071123;28;20258;-85
2023/02/03 10:03:25;;;;;;;3.10;2.40;;;;;;;;;;5054208;28;20214;-86
2023/02/03 10:06:16;;;;;;;2.20;2.00;;;;;;;;;;5051557;28;20236;-86
2023/02/03 10:09:15;;;;;;;2.97;2.67;;;;;;;;;;5038193;28;20287;-86
2023/02/03 10:11:55;;;;;;;2.00;1.90;;;;;;;;;;5070562;28;20252;-86
2023/02/03 10:14:35;;;;;;;3.23;2.20;;;;;;;;;;5057567;28;20621;-86
2023/02/03 10:17:13;;;;;;;1.67;1.57;;;;;;;;;;5061128;28;20283;-86
2023/02/03 10:19:45;;;;;;;1.97;1.87;;;;;;;;;;5050983;28;20267;-86
2023/02/03 10:22:16;;;;;;;2.17;1.90;;;;;;;;;;5055080;28;20263;-85
2023/02/03 10:24:46;;;;;;;2.53;2.20;;;;;;;;;;5078016;28;20216;-86
2023/02/03 10:27:17;;;;;;;1.80;1.70;;;;;;;;;;5065251;28;20210;-86
2023/02/03 10:29:44;;;;;;;2.00;1.90;;;;;;;;;;5077931;28;20629;-85
2023/02/03 10:32:10;;;;;;;2.07;1.90;;;;;;;;;;5077806;28;20706;-85
2023/02/03 10:34:38;;;;;;;1.90;1.80;;;;;;;;;;5064454;28;20573;-86
2023/02/03 10:37:12;;;;;;;2.13;2.03;;;;;;;;;;5063934;28;20236;-86
2023/02/03 10:39:44;;;;;;;3.50;2.20;;;;;;;;;;5065735;28;20294;-85
2023/02/03 10:42:12;;;;;;;4.27;3.43;;;;;;;;;;5063813;28;20210;-85
2023/02/03 10:44:41;;;;;;;4.60;3.27;;;;;;;;;;5077503;28;20671;-85
2023/02/03 10:47:20;;;;;;;7.67;5.10;;;;;;;;;;5077455;28;20213;-86
2023/02/03 10:49:47;;;;;;;3.07;2.40;;;;;;;;;;5065748;28;20213;-85
2023/02/03 10:52:26;;;;;;;2.80;2.50;;;;;;;;;;5062951;28;20255;-86
2023/02/03 10:54:55;;;;;;;6.57;4.57;;;;;;;;;;5077319;28;20594;-86
2023/02/03 10:57:22;;;;;;;1.63;1.53;;;;;;;;;;5049949;28;20288;-86
2023/02/03 10:59:49;;;;;;;3.17;2.90;;;;;;;;;;5065447;28;20196;-85
2023/02/03 11:02:28;;;;;;;2.50;2.30;;;;;;;;;;5070331;28;20237;-86
2023/02/03 11:05:20;;;;;;;2.10;2.00;;;;;;;;;;5070833;28;20260;-86
2023/02/03 11:07:48;;;;;;;3.27;2.33;;;;;;;;;;5070696;28;20201;-86
2023/02/03 11:10:34;;;;;;;1.13;1.13;;;;;;;;;;5057643;28;20216;-86
2023/02/03 11:13:15;;;;;;;1.90;1.80;;;;;;;;;;5059896;28;20212;-86
2023/02/03 11:16:00;;;;;;;1.80;1.70;;;;;;;;;;5065970;28;20226;-86
2023/02/03 11:18:40;;;;;;;2.30;2.10;;;;;;;;;;5064911;28;20205;-86
2023/02/03 11:21:09;;;;;;;2.10;1.80;;;;;;;;;;5074333;28;20200;-86
2023/02/03 11:23:36;;;;;;;2.17;2.03;;;;;;;;;;5057266;28;20208;-86
2023/02/03 11:26:13;;;;;;;2.07;1.77;;;;;;;;;;5073622;28;20201;-85
2023/02/03 11:28:43;;;;;;;1.80;1.70;;;;;;;;;;5077425;28;20295;-86
2023/02/03 11:31:22;;;;;;;1.80;1.70;;;;;;;;;;5063840;28;20286;-86
2023/02/03 11:33:51;;;;;;;2.87;2.67;;;;;;;;;;5073853;28;20209;-87
2023/02/03 11:36:18;;;;;;;18.67;11.70;;;;;;;;;;5061066;28;20227;-86
2023/02/03 11:38:45;;;;;;;3.83;3.43;;;;;;;;;;5059653;28;20730;-85
2023/02/03 11:41:20;;;;;;;2.50;2.30;;;;;;;;;;5053638;28;20217;-86
2023/02/03 11:43:48;;;;;;;2.77;2.57;;;;;;;;;;5069294;28;20622;-86
2023/02/03 11:46:15;;;;;;;3.33;3.00;;;;;;;;;;5065697;28;20210;-86
2023/02/03 11:48:50;;;;;;;5.67;4.27;;;;;;;;;;5067450;28;20205;-86
2023/02/03 11:51:26;;;;;;;3.90;3.20;;;;;;;;;;5053841;28;20275;-86
2023/02/03 11:54:17;;;;;;;4.70;3.40;;;;;;;;;;5066664;28;20680;-86
2023/02/03 11:57:01;;;;;;;3.97;3.03;;;;;;;;;;5053576;28;20233;-86
2023/02/03 11:59:51;;;;;;;4.10;3.10;;;;;;;;;;5053633;28;20672;-86
2023/02/03 12:02:48;;;;;;;3.77;2.93;;;;;;;;;;5038891;28;20217;-86
2023/02/03 12:05:25;;;;;;;2.60;2.30;;;;;;;;;;5071536;28;20244;-86
2023/02/03 12:08:04;;;;;;;2.10;1.90;;;;;;;;;;5060052;28;20201;-86
2023/02/03 12:10:39;;;;;;;2.47;2.27;;;;;;;;;;5042187;28;20563;-86
2023/02/03 12:13:18;;;;;;;2.17;2.07;;;;;;;;;;5053913;28;21605;-92
2023/02/03 12:15:58;;;;;;;4.53;2.67;;;;;;;;;;5064553;28;20649;-86
2023/02/03 12:18:37;;;;;;;1.90;1.70;;;;;;;;;;5053585;28;20225;-86
2023/02/03 12:21:14;;;;;;;6.17;3.00;;;;;;;;;;5053235;28;20210;-86
2023/02/03 12:23:47;;;;;;;2.60;2.30;;;;;;;;;;5062917;28;20680;-84
2023/02/03 12:26:19;;;;;;;2.43;2.20;;;;;;;;;;5068916;28;20264;-85
2023/02/03 12:28:53;;;;;;;3.47;2.60;;;;;;;;;;5065550;28;20201;-85
2023/02/03 12:31:28;;;;;;;1.67;1.57;;;;;;;;;;5073056;28;20215;-84
2023/02/03 12:34:01;;;;;;;4.43;3.53;;;;;;;;;;5059876;28;20243;-84
2023/02/03 12:36:31;;;;;;;10.50;5.90;;;;;;;;;;5063492;28;20260;-84
2023/02/03 12:39:01;;;;;;;14.33;8.70;;;;;;;;;;5055939;28;20209;-84
2023/02/03 12:41:32;;;;;;;6.47;5.00;;;;;;;;;;5072639;28;20209;-84
2023/02/03 12:44:04;;;;;;;2.23;2.00;;;;;;;;;;5072146;28;20300;-83
2023/02/03 12:46:35;;;;;;;2.77;2.17;;;;;;;;;;5072665;28;20254;-84
2023/02/03 12:49:09;;;;;;;2.90;2.23;;;;;;;;;;5053896;28;20206;-84
2023/02/03 12:51:40;;;;;;;2.00;1.80;;;;;;;;;;5052814;28;20206;-84
2023/02/03 12:54:13;;;;;;;2.20;2.00;;;;;;;;;;5046793;28;20201;-85
2023/02/03 12:56:43;;;;;;;1.50;1.40;;;;;;;;;;5072369;28;20224;-85
2023/02/03 12:59:15;;;;;;;1.80;1.70;;;;;;;;;;5072598;28;20204;-85
2023/02/03 13:01:46;;;;;;;1.60;1.50;;;;;;;;;;5069871;28;20201;-85
2023/02/03 13:04:17;;;;;;;1.90;1.80;;;;;;;;;;5052743;28;20298;-85
2023/02/03 13:06:51;;;;;;;1.50;1.40;;;;;;;;;;5065530;28;20206;-85
2023/02/03 13:09:26;;;;;;;1.53;1.43;;;;;;;;;;5052515;28;20227;-84
2023/02/03 13:11:57;;;;;;;1.83;1.70;;;;;;;;;;5045718;28;20212;-85
2023/02/03 13:14:29;;;;;;;1.40;1.30;;;;;;;;;;5072083;28;20638;-84
2023/02/03 13:16:59;;;;;;;2.37;2.13;;;;;;;;;;5063838;28;20614;-85
2023/02/03 13:19:29;;;;;;;1.90;1.77;;;;;;;;;;5054154;28;20273;-85
2023/02/03 13:21:55;;;;;;;1.50;1.40;;;;;;;;;;5063074;28;20554;-85
2023/02/03 13:24:24;;;;;;;1.87;1.73;;;;;;;;;;5054879;28;20290;-86
2023/02/03 13:27:05;;;;;;;1.70;1.60;;;;;;;;;;5071865;28;20292;-85
2023/02/03 13:29:51;;;;;;;1.87;1.67;;;;;;;;;;5072261;28;20256;-86
2023/02/03 13:32:29;;;;;;;2.13;1.87;;;;;;;;;;5070610;28;20209;-87
2023/02/03 13:35:11;;;;;;;1.57;1.47;;;;;;;;;;5062012;28;20238;-85
2023/02/03 13:37:51;;;;;;;4.37;2.30;;;;;;;;;;5071736;28;20235;-85
2023/02/03 13:40:31;;;;;;;2.60;2.30;;;;;;;;;;5072271;28;20209;-86
2023/02/03 13:42:59;;;;;;;4.20;2.40;;;;;;;;;;5071703;28;20208;-86
2023/02/03 13:45:30;;;;;;;2.93;2.60;;;;;;;;;;5072077;28;20209;-85
2023/02/03 13:48:01;;;;;;;1.70;1.60;;;;;;;;;;5062655;28;20212;-84
2023/02/03 13:50:29;;;;;;;3.50;2.40;;;;;;;;;;5065065;28;20236;-85
2023/02/03 13:52:59;;;;;;;2.67;2.47;;;;;;;;;;5051871;28;20613;-86
2023/02/03 13:55:33;;;;;;;4.73;3.10;;;;;;;;;;5052289;28;20275;-87
2023/02/03 13:58:00;;;;;;;2.80;2.60;;;;;;;;;;5063310;28;20232;-86
2023/02/03 14:01:21;;;;;;;5.07;3.57;;;;;;;;;;5065937;28;20209;-86
2023/02/03 14:03:49;;;;;;;8.07;4.63;;;;;;;;;;4977204;28;20776;-85
2023/02/03 14:06:55;;;;;;;8.40;5.43;;;;;;;;;;4976658;28;20205;-87
2023/02/03 14:09:24;;;;;;;4.50;3.60;;;;;;;;;;5034783;28;20205;-86
2023/02/03 14:11:51;;;;;;;6.17;4.63;;;;;;;;;;5057582;28;20201;-86
2023/02/03 14:15:02;;;;;;;3.10;2.80;;;;;;;;;;5071354;28;20216;-85
2023/02/03 14:17:57;;;;;;;3.20;2.90;;;;;;;;;;5057404;28;20260;-85
2023/02/03 14:21:02;;;;;;;3.60;2.63;;;;;;;;;;5070935;28;20699;-85
2023/02/03 14:23:43;;;;;;;2.70;2.50;;;;;;;;;;5049315;28;20205;-85
2023/02/03 14:26:22;;;;;;;2.20;2.00;;;;;;;;;;5070984;28;20205;-86
2023/02/03 14:28:49;;;;;;;3.03;1.90;;;;;;;;;;5058431;28;20363;-85
2023/02/03 14:31:20;;;;;;;5.40;4.30;;;;;;;;;;5057049;28;20296;-85
2023/02/03 14:34:13;;;;;;;3.73;3.27;;;;;;;;;;5070950;28;20201;-86
2023/02/03 14:36:43;;;;;;;3.37;2.80;;;;;;;;;;5060236;28;20233;-85
2023/02/03 14:39:55;;;;;;;3.97;3.00;;;;;;;;;;5051389;28;20216;-85
2023/02/03 14:42:38;;;;;;;4.20;2.80;;;;;;;;;;5020786;28;20286;-86
2023/02/03 14:45:14;;;;;;;3.87;1.90;;;;;;;;;;5056658;28;20204;-85
2023/02/03 14:47:51;;;;;;;2.50;2.30;;;;;;;;;;5071471;28;20330;-85
2023/02/03 14:50:26;;;;;;;2.90;2.70;;;;;;;;;;5057786;28;20220;-86
2023/02/03 14:53:21;;;;;;;3.53;3.23;;;;;;;;;;5070810;28;20771;-86
2023/02/03 14:55:57;;;;;;;8.10;4.67;;;;;;;;;;5041452;28;20209;-86
2023/02/03 14:58:29;;;;;;;4.77;3.30;;;;;;;;;;5067996;28;20707;-85
2023/02/03 15:00:56;;;;;;;4.47;3.63;;;;;;;;;;5050935;28;20206;-86
2023/02/03 15:03:26;;;;;;;3.13;2.63;;;;;;;;;;5050946;28;20233;-86
2023/02/03 15:05:55;;;;;;;3.13;2.83;;;;;;;;;;5061241;28;20233;-85